Time;durP1;ratioP1;P1;durP2;ratioP2;P2;SDS_P1;SDS_P2;PMS_P1;PMS_P2;Temp;Humidity;BMP_temperature;BMP_pressure;BME280_temperature;BME280_humidity;BME280_pressure;Samples;Min_cycle;Max_cycle;Signal;HPM_P1;HPM_P2
2024/03/17 00:01:10;;;;;;;0.50;0.50;;;;;;;9.30;86.71;97284.78;5061062;28;20434;-70
2024/03/17 00:03:36;;;;;;;0.40;0.40;;;;;;;9.29;86.40;97285.97;5061078;28;20529;-70
2024/03/17 00:06:02;;;;;;;0.40;0.40;;;;;;;9.33;85.93;97289.59;5060616;28;20103;-70
2024/03/17 00:08:28;;;;;;;0.43;0.43;;;;;;;9.30;86.19;97287.56;5061066;28;20060;-70
2024/03/17 00:10:54;;;;;;;0.40;0.40;;;;;;;9.28;85.89;97298.16;5061386;28;20109;-71
2024/03/17 00:13:21;;;;;;;0.40;0.40;;;;;;;9.29;85.72;97294.25;5061457;28;20255;-70
2024/03/17 00:15:50;;;;;;;0.40;0.40;;;;;;;8.84;85.83;97219.25;5060692;28;20549;-70
2024/03/17 00:18:17;;;;;;;0.40;0.40;;;;;;;9.16;86.68;97289.97;5060660;28;20067;-71
2024/03/17 00:20:42;;;;;;;0.40;0.40;;;;;;;8.77;87.66;97260.50;5044230;28;20451;-70
2024/03/17 00:23:11;;;;;;;0.40;0.40;;;;;;;9.09;88.14;97289.75;5060967;28;20544;-70
2024/03/17 00:25:38;;;;;;;0.40;0.40;;;;;;;9.09;88.43;97285.03;5059993;28;20052;-70
2024/03/17 00:28:04;;;;;;;0.40;0.40;;;;;;;8.57;88.90;97200.75;5044906;28;20052;-70
2024/03/17 00:30:31;;;;;;;0.40;0.40;;;;;;;8.54;89.01;97198.69;5047824;28;20044;-71
2024/03/17 00:33:00;;;;;;;0.40;0.40;;;;;;;8.51;88.93;97229.78;5048069;28;20056;-70
2024/03/17 00:35:26;;;;;;;0.40;0.40;;;;;;;9.13;88.44;97279.63;5064115;28;20519;-71
2024/03/17 00:37:53;;;;;;;0.40;0.40;;;;;;;8.66;88.60;97220.75;5064508;28;20052;-70
2024/03/17 00:40:19;;;;;;;0.40;0.40;;;;;;;8.99;88.91;97273.72;5047722;28;20048;-70
2024/03/17 00:42:46;;;;;;;0.40;0.40;;;;;;;8.56;89.28;97219.31;5064254;28;20056;-70
2024/03/17 00:45:12;;;;;;;0.40;0.40;;;;;;;8.87;88.01;97254.44;5064455;28;20483;-70
2024/03/17 00:47:38;;;;;;;0.40;0.40;;;;;;;8.81;88.58;97275.19;5064444;28;20048;-70
2024/03/17 00:50:07;;;;;;;0.40;0.40;;;;;;;8.60;89.69;97266.34;5064931;28;20063;-71
2024/03/17 00:52:32;;;;;;;0.40;0.40;;;;;;;8.58;90.38;97279.69;5065122;28;20538;-69
2024/03/17 00:54:58;;;;;;;0.40;0.40;;;;;;;8.67;89.84;97272.03;5064069;28;20096;-69
2024/03/17 00:57:24;;;;;;;0.40;0.40;;;;;;;8.49;89.79;97271.53;5063920;28;20408;-69
2024/03/17 00:59:50;;;;;;;0.40;0.40;;;;;;;8.54;90.97;97267.72;5063840;28;20102;-70
2024/03/17 01:02:16;;;;;;;0.40;0.40;;;;;;;8.55;90.00;97272.09;5064015;28;20056;-70
2024/03/17 01:04:43;;;;;;;0.40;0.40;;;;;;;8.49;90.48;97265.22;5063891;28;20060;-70
2024/03/17 01:07:12;;;;;;;0.40;0.40;;;;;;;8.31;90.81;97258.41;5046301;28;20056;-69
2024/03/17 01:09:39;;;;;;;0.40;0.40;;;;;;;8.30;90.74;97256.78;5031582;28;20103;-70
2024/03/17 01:12:05;;;;;;;0.40;0.40;;;;;;;8.05;91.16;97266.25;5024023;28;20080;-69
2024/03/17 01:14:33;;;;;;;0.40;0.40;;;;;;;7.89;92.52;97246.06;5006725;28;20057;-69
2024/03/17 01:17:00;;;;;;;0.40;0.40;;;;;;;8.03;91.46;97265.81;5023264;28;20064;-69
2024/03/17 01:19:26;;;;;;;0.40;0.40;;;;;;;7.63;92.48;97233.44;5023788;28;20053;-69
2024/03/17 01:21:52;;;;;;;0.40;0.40;;;;;;;7.71;92.78;97262.84;5023126;28;20057;-69
2024/03/17 01:24:18;;;;;;;0.40;0.40;;;;;;;7.52;92.57;97204.75;5007710;28;20060;-71
2024/03/17 01:26:45;;;;;;;0.40;0.40;;;;;;;7.69;92.70;97234.84;5024177;28;20049;-70
2024/03/17 01:29:11;;;;;;;0.40;0.40;;;;;;;7.81;93.09;97255.28;5007322;28;20053;-70
2024/03/17 01:31:37;;;;;;;0.40;0.40;;;;;;;7.25;92.01;97150.41;5023490;28;20067;-70
2024/03/17 01:34:02;;;;;;;0.40;0.40;;;;;;;7.83;91.59;97247.44;5023681;28;20139;-70
2024/03/17 01:36:29;;;;;;;0.40;0.40;;;;;;;7.37;92.38;97202.72;5006872;28;20213;-69
2024/03/17 01:38:54;;;;;;;0.40;0.40;;;;;;;7.70;92.80;97244.72;5023658;28;20057;-70
2024/03/17 01:41:20;;;;;;;0.40;0.40;;;;;;;7.78;91.68;97237.47;5022916;28;20202;-70
2024/03/17 01:43:46;;;;;;;0.40;0.40;;;;;;;7.66;92.07;97237.50;5023390;28;20057;-69
2024/03/17 01:46:15;;;;;;;0.40;0.40;;;;;;;7.11;91.95;97188.47;5006613;28;20064;-69
2024/03/17 01:48:42;;;;;;;0.40;0.40;;;;;;;7.28;92.06;97182.75;5023331;28;20049;-70
2024/03/17 01:51:10;;;;;;;0.40;0.40;;;;;;;7.29;91.92;97178.03;5023183;28;20053;-70
2024/03/17 01:53:39;;;;;;;0.40;0.40;;;;;;;7.53;91.79;97233.94;5006470;28;20049;-70
2024/03/17 01:56:06;;;;;;;0.40;0.40;;;;;;;6.64;91.64;97151.50;5023079;28;20068;-70
2024/03/17 01:58:33;;;;;;;0.40;0.40;;;;;;;7.16;92.58;97228.78;5023250;28;20111;-70
2024/03/17 02:00:58;;;;;;;0.40;0.40;;;;;;;7.47;91.31;97229.81;5023253;28;20057;-69
2024/03/17 02:03:24;;;;;;;0.40;0.40;;;;;;;7.39;91.49;97222.47;5023244;28;20510;-70
2024/03/17 02:05:50;;;;;;;0.50;0.50;;;;;;;7.48;90.07;97255.41;5022612;28;20059;-69
2024/03/17 02:08:16;;;;;;;0.40;0.40;;;;;;;7.50;90.79;97240.16;5022536;28;20602;-69
2024/03/17 02:10:41;;;;;;;0.38;0.38;;;;;;;7.49;90.39;97244.03;5033423;28;20095;-69
2024/03/17 02:13:07;;;;;;;0.32;0.32;;;;;;;7.43;91.07;97245.44;5042682;28;20056;-69
2024/03/17 02:15:33;;;;;;;0.40;0.40;;;;;;;7.47;90.99;97246.34;5025217;28;20549;-69
2024/03/17 02:17:59;;;;;;;0.40;0.40;;;;;;;7.29;91.09;97250.47;5042314;28;20060;-69
2024/03/17 02:20:55;;;;;;;0.40;0.40;;;;;;;7.36;90.54;97239.69;5025977;28;20092;-70
2024/03/17 02:23:11;;;;;;;0.30;0.30;;;;;;;7.44;91.38;97244.28;5042037;28;20445;-69
2024/03/17 02:25:37;;;;;;;0.40;0.40;;;;;;;6.90;91.35;97160.28;5025436;28;20060;-69
2024/03/17 02:28:04;;;;;;;0.40;0.40;;;;;;;7.50;90.95;97245.66;5042719;28;20423;-69
2024/03/17 02:30:30;;;;;;;0.40;0.40;;;;;;;7.54;90.24;97251.25;5024991;28;20134;-69
2024/03/17 02:32:56;;;;;;;0.40;0.40;;;;;;;7.50;88.45;97231.88;5042293;28;20056;-69
2024/03/17 02:35:26;;;;;;;0.40;0.40;;;;;;;7.64;89.61;97248.88;5042073;28;20061;-69
2024/03/17 02:37:52;;;;;;;0.40;0.40;;;;;;;7.39;89.13;97192.16;5025867;28;20056;-69
2024/03/17 02:40:18;;;;;;;0.40;0.40;;;;;;;7.50;89.81;97240.16;5041852;28;20056;-70
2024/03/17 02:42:45;;;;;;;0.40;0.40;;;;;;;7.37;89.91;97224.75;5041911;28;20049;-70
2024/03/17 02:45:14;;;;;;;0.40;0.40;;;;;;;7.46;90.33;97244.72;5041614;28;20539;-69
2024/03/17 02:47:41;;;;;;;0.40;0.40;;;;;;;7.57;88.97;97234.84;5041615;28;20056;-70
2024/03/17 02:50:08;;;;;;;0.40;0.40;;;;;;;7.57;87.96;97242.34;5041429;28;20060;-69
2024/03/17 02:52:34;;;;;;;0.40;0.40;;;;;;;7.60;88.20;97244.38;5040680;28;20417;-70
2024/03/17 02:55:00;;;;;;;0.40;0.40;;;;;;;7.42;89.26;97243.81;5041574;28;20060;-70
2024/03/17 02:57:30;;;;;;;0.40;0.40;;;;;;;7.38;89.31;97253.13;5025290;28;20132;-69
2024/03/17 02:59:56;;;;;;;0.40;0.40;;;;;;;7.03;89.18;97214.22;5025024;28;20053;-70
2024/03/17 03:02:22;;;;;;;0.40;0.40;;;;;;;7.04;88.45;97192.97;5025527;28;20060;-70
2024/03/17 03:04:48;;;;;;;0.38;0.38;;;;;;;7.24;88.35;97197.56;5025528;28;20056;-69
2024/03/17 03:07:14;;;;;;;0.40;0.40;;;;;;;7.20;88.52;97197.44;5041051;28;20044;-70
2024/03/17 03:09:40;;;;;;;0.40;0.40;;;;;;;7.33;89.86;97248.63;5039428;28;20132;-69
2024/03/17 03:12:07;;;;;;;0.40;0.40;;;;;;;7.32;89.99;97244.28;5021859;28;20053;-70
2024/03/17 03:14:33;;;;;;;0.40;0.40;;;;;;;7.42;90.98;97240.25;5005233;28;20495;-69
2024/03/17 03:16:59;;;;;;;0.40;0.40;;;;;;;7.40;89.11;97250.81;5005265;28;20054;-70
2024/03/17 03:19:26;;;;;;;0.40;0.40;;;;;;;7.27;89.59;97251.97;5021299;28;20168;-71
2024/03/17 03:21:52;;;;;;;0.40;0.40;;;;;;;6.75;88.95;97154.66;5021037;28;20049;-69
2024/03/17 03:24:18;;;;;;;0.40;0.40;;;;;;;7.14;89.28;97251.16;5021476;28;20053;-70
2024/03/17 03:26:44;;;;;;;0.40;0.40;;;;;;;6.99;90.72;97240.81;5021110;28;20089;-70
2024/03/17 03:29:11;;;;;;;0.40;0.40;;;;;;;6.89;89.46;97213.72;5004860;28;20067;-70
2024/03/17 03:31:40;;;;;;;0.40;0.40;;;;;;;7.24;89.64;97260.94;5004669;28;20589;-70
2024/03/17 03:34:07;;;;;;;0.40;0.40;;;;;;;7.19;88.83;97233.63;5021419;28;20049;-69
2024/03/17 03:36:35;;;;;;;0.40;0.40;;;;;;;6.77;90.63;97227.47;5021251;28;20495;-70
2024/03/17 03:39:04;;;;;;;0.40;0.40;;;;;;;6.78;89.80;97212.53;5021078;28;20065;-69
2024/03/17 03:41:30;;;;;;;0.40;0.40;;;;;;;6.86;90.60;97258.44;5021316;28;20057;-70
2024/03/17 03:43:56;;;;;;;0.40;0.40;;;;;;;6.72;92.78;97263.47;5020965;28;20061;-70
2024/03/17 03:46:22;;;;;;;0.30;0.30;;;;;;;6.69;92.88;97258.66;5004660;28;20424;-69
2024/03/17 03:48:48;;;;;;;0.30;0.30;;;;;;;6.76;91.95;97260.84;5020791;28;20066;-69
2024/03/17 03:51:14;;;;;;;0.40;0.40;;;;;;;6.79;91.86;97263.72;5021302;28;20155;-69
2024/03/17 03:53:40;;;;;;;0.40;0.40;;;;;;;6.61;91.61;97240.28;5020973;28;20107;-69
2024/03/17 03:56:06;;;;;;;0.30;0.30;;;;;;;6.65;92.06;97232.97;5020636;28;20053;-69
2024/03/17 03:58:36;;;;;;;0.40;0.40;;;;;;;6.86;92.97;97266.72;5020738;28;20449;-69
2024/03/17 04:01:07;;;;;;;0.40;0.40;;;;;;;6.65;92.79;97230.22;5021045;28;20065;-69
2024/03/17 04:03:33;;;;;;;0.40;0.40;;;;;;;7.11;91.87;97276.63;5022911;28;20058;-69
2024/03/17 04:06:10;;;;;;;0.40;0.40;;;;;;;6.81;91.71;97239.41;5025744;28;20061;-69
2024/03/17 04:08:39;;;;;;;0.30;0.30;;;;;;;7.12;91.59;97267.22;5024631;28;20444;-69
2024/03/17 04:11:05;;;;;;;0.30;0.30;;;;;;;7.14;92.32;97286.97;5061199;28;20059;-70
2024/03/17 04:13:33;;;;;;;0.40;0.40;;;;;;;7.14;92.44;97264.94;5048896;28;20052;-70
2024/03/17 04:15:59;;;;;;;0.40;0.40;;;;;;;7.16;92.12;97268.13;5047962;28;20063;-70
2024/03/17 04:18:26;;;;;;;0.32;0.32;;;;;;;6.29;91.05;97177.84;5048045;28;20056;-71
2024/03/17 04:20:53;;;;;;;0.40;0.40;;;;;;;6.70;90.85;97194.19;5048181;28;20056;-71
2024/03/17 04:23:23;;;;;;;0.40;0.40;;;;;;;6.97;90.83;97226.56;5064914;28;20071;-70
2024/03/17 04:25:53;;;;;;;0.40;0.40;;;;;;;6.93;91.37;97236.69;5048148;28;20048;-70
2024/03/17 04:28:19;;;;;;;0.40;0.40;;;;;;;7.12;91.49;97267.22;5047930;28;20609;-70
2024/03/17 04:30:45;;;;;;;0.30;0.30;;;;;;;7.04;89.89;97254.38;5064014;28;20670;-70
2024/03/17 04:33:12;;;;;;;0.30;0.30;;;;;;;7.02;89.64;97277.88;5047965;28;20060;-70
2024/03/17 04:35:39;;;;;;;0.38;0.38;;;;;;;7.03;89.86;97274.78;5064703;28;20056;-70
2024/03/17 04:38:05;;;;;;;0.30;0.30;;;;;;;6.96;89.07;97307.59;5064485;28;20056;-70
2024/03/17 04:40:32;;;;;;;0.40;0.40;;;;;;;6.20;90.05;97184.56;5047862;28;20052;-69
2024/03/17 04:42:58;;;;;;;0.30;0.30;;;;;;;6.00;90.63;97178.75;5064145;28;20168;-68
2024/03/17 04:45:24;;;;;;;0.40;0.40;;;;;;;6.81;90.20;97299.97;5047323;28;20048;-68
2024/03/17 04:47:50;;;;;;;0.40;0.40;;;;;;;6.65;90.11;97285.25;5047018;28;20565;-67
2024/03/17 04:50:15;;;;;;;0.30;0.30;;;;;;;6.66;91.89;97291.53;5063909;28;20056;-69
2024/03/17 04:52:41;;;;;;;0.40;0.40;;;;;;;6.89;90.27;97290.81;5063834;28;20049;-69
2024/03/17 04:55:07;;;;;;;0.40;0.40;;;;;;;6.91;89.71;97293.22;5063265;28;20060;-68
2024/03/17 04:57:33;;;;;;;0.40;0.40;;;;;;;6.07;90.17;97197.44;5064253;28;20064;-72
2024/03/17 04:59:59;;;;;;;0.38;0.38;;;;;;;6.58;91.04;97296.00;5063923;28;20056;-70
2024/03/17 05:02:24;;;;;;;0.40;0.40;;;;;;;6.77;90.22;97304.53;5047566;28;20075;-70
2024/03/17 05:04:50;;;;;;;0.40;0.40;;;;;;;6.85;90.26;97306.41;5064250;28;20511;-69
2024/03/17 05:07:16;;;;;;;0.40;0.40;;;;;;;6.88;90.02;97294.72;5063849;28;20617;-69
2024/03/17 05:09:43;;;;;;;0.40;0.40;;;;;;;7.00;89.68;97300.25;5063743;28;20438;-68
2024/03/17 05:12:10;;;;;;;0.40;0.40;;;;;;;7.10;89.39;97308.06;5047452;28;20499;-69
2024/03/17 05:14:35;;;;;;;0.30;0.30;;;;;;;6.98;90.50;97310.81;5063080;28;20538;-69
2024/03/17 05:17:01;;;;;;;0.30;0.30;;;;;;;7.00;89.95;97307.72;5063576;28;20060;-68
2024/03/17 05:19:27;;;;;;;0.40;0.40;;;;;;;6.34;89.43;97194.09;5063318;28;20048;-70
2024/03/17 05:21:53;;;;;;;0.40;0.40;;;;;;;6.30;87.84;97173.94;5046416;28;20056;-70
2024/03/17 05:24:19;;;;;;;0.30;0.30;;;;;;;7.16;88.66;97306.69;5046843;28;20435;-70
2024/03/17 05:26:48;;;;;;;0.40;0.40;;;;;;;7.12;88.29;97325.06;5046821;28;20049;-69
2024/03/17 05:29:14;;;;;;;0.32;0.32;;;;;;;7.30;87.85;97311.91;5063566;28;20485;-69
2024/03/17 05:31:39;;;;;;;0.32;0.32;;;;;;;7.34;88.64;97316.38;5062962;28;20048;-68
2024/03/17 05:34:10;;;;;;;0.40;0.40;;;;;;;7.39;87.88;97299.63;5063122;28;20056;-68
2024/03/17 05:36:36;;;;;;;0.40;0.40;;;;;;;7.15;87.40;97244.50;5062831;28;20048;-69
2024/03/17 05:39:03;;;;;;;0.40;0.40;;;;;;;7.72;86.75;97314.09;5063529;28;20068;-69
2024/03/17 05:41:28;;;;;;;0.40;0.40;;;;;;;7.59;85.82;97282.16;5046895;28;20075;-70
2024/03/17 05:43:58;;;;;;;0.40;0.40;;;;;;;7.81;86.25;97326.97;5063087;28;20572;-68
2024/03/17 05:46:28;;;;;;;0.30;0.30;;;;;;;7.91;85.91;97334.75;5047147;28;20052;-70
2024/03/17 05:48:54;;;;;;;0.40;0.40;;;;;;;7.84;85.29;97277.44;5063823;28;20067;-69
2024/03/17 05:51:20;;;;;;;0.40;0.40;;;;;;;7.78;85.76;97278.03;5063524;28;20106;-70
2024/03/17 05:53:46;;;;;;;0.40;0.40;;;;;;;7.53;85.72;97195.34;5052559;28;20059;-69
2024/03/17 05:56:13;;;;;;;0.40;0.40;;;;;;;8.45;84.48;97314.00;5042713;28;20060;-69
2024/03/17 05:58:42;;;;;;;0.40;0.40;;;;;;;8.62;84.24;97324.75;5042809;28;20057;-68
2024/03/17 06:01:08;;;;;;;0.40;0.40;;;;;;;8.82;83.76;97312.72;5026087;28;20110;-68
2024/03/17 06:03:38;;;;;;;0.40;0.40;;;;;;;9.10;82.82;97319.03;5042630;28;20049;-69
2024/03/17 06:06:07;;;;;;;0.50;0.50;;;;;;;9.24;81.26;97319.41;5026015;28;20053;-71
2024/03/17 06:08:33;;;;;;;0.40;0.40;;;;;;;9.19;80.83;97328.75;5042111;28;20552;-68
2024/03/17 06:11:00;;;;;;;0.40;0.40;;;;;;;8.92;80.73;97292.84;5015891;28;20160;-68
2024/03/17 06:13:28;;;;;;;0.40;0.40;;;;;;;8.61;80.29;97212.72;5038955;28;20057;-69
2024/03/17 06:15:54;;;;;;;0.50;0.50;;;;;;;8.87;80.55;97259.97;5038665;28;20072;-67
2024/03/17 06:18:20;;;;;;;0.50;0.50;;;;;;;9.53;80.54;97332.00;5022594;28;20453;-70
2024/03/17 06:20:47;;;;;;;0.40;0.40;;;;;;;9.59;79.22;97330.56;5039477;28;20143;-69
2024/03/17 06:23:16;;;;;;;0.43;0.43;;;;;;;9.82;78.03;97324.03;5023294;28;20053;-68
2024/03/17 06:25:43;;;;;;;0.50;0.50;;;;;;;9.99;77.67;97340.25;5021636;28;20436;-69
2024/03/17 06:28:13;;;;;;;0.40;0.40;;;;;;;10.09;76.33;97338.94;5033492;28;20052;-68
2024/03/17 06:30:40;;;;;;;0.50;0.50;;;;;;;10.20;76.14;97342.75;5042144;28;20060;-68
2024/03/17 06:33:06;;;;;;;0.50;0.50;;;;;;;10.30;75.03;97340.25;5042340;28;20057;-68
2024/03/17 06:35:32;;;;;;;0.40;0.40;;;;;;;10.39;75.49;97343.59;5041643;28;20056;-68
2024/03/17 06:38:01;;;;;;;0.50;0.50;;;;;;;10.48;74.94;97341.44;5041949;28;20045;-68
2024/03/17 06:40:28;;;;;;;0.40;0.40;;;;;;;10.43;74.50;97314.00;5025024;28;20549;-69
2024/03/17 06:42:54;;;;;;;0.50;0.50;;;;;;;10.66;75.00;97342.63;5025695;28;20053;-70
2024/03/17 06:45:24;;;;;;;0.50;0.50;;;;;;;9.86;75.37;97208.75;5041713;28;20086;-70
2024/03/17 06:47:50;;;;;;;0.50;0.50;;;;;;;10.51;74.10;97299.16;5025242;28;20081;-68
2024/03/17 06:50:16;;;;;;;0.50;0.50;;;;;;;11.02;74.36;97346.13;5041422;28;20053;-68
2024/03/17 06:52:41;;;;;;;0.50;0.50;;;;;;;10.87;73.87;97308.19;5042104;28;20052;-68
2024/03/17 06:55:08;;;;;;;0.50;0.50;;;;;;;11.47;71.35;97354.53;5041715;28;20092;-68
2024/03/17 06:57:34;;;;;;;0.50;0.50;;;;;;;10.90;70.83;97268.66;5024786;28;20053;-68
2024/03/17 07:00:05;;;;;;;0.50;0.50;;;;;;;11.72;70.69;97328.03;5042112;28;20065;-70
2024/03/17 07:02:32;;;;;;;0.50;0.50;;;;;;;11.46;71.00;97325.19;5040957;28;20174;-68
2024/03/17 07:04:58;;;;;;;0.50;0.50;;;;;;;10.92;73.41;97321.75;5023804;28;20487;-69
2024/03/17 07:07:27;;;;;;;0.50;0.50;;;;;;;11.48;72.79;97345.00;5023432;28;20064;-69
2024/03/17 07:09:53;;;;;;;0.52;0.52;;;;;;;11.49;72.84;97352.97;5040852;28;20056;-70
2024/03/17 07:12:19;;;;;;;0.50;0.50;;;;;;;10.56;75.60;97301.63;5059760;28;20059;-69
2024/03/17 07:14:46;;;;;;;0.50;0.50;;;;;;;11.47;74.36;97352.56;5042844;28;20583;-67
2024/03/17 07:17:11;;;;;;;0.50;0.50;;;;;;;11.43;72.95;97353.66;5043427;28;20056;-68
2024/03/17 07:19:37;;;;;;;0.50;0.50;;;;;;;10.41;76.22;97341.28;5060670;28;20110;-69
2024/03/17 07:22:03;;;;;;;0.50;0.50;;;;;;;10.36;78.11;97305.56;5060962;28;20560;-68
2024/03/17 07:24:30;;;;;;;0.50;0.50;;;;;;;10.01;80.87;97365.63;5060849;28;20619;-69
2024/03/17 07:26:56;;;;;;;0.50;0.50;;;;;;;9.91;81.69;97349.53;5044099;28;20102;-68
2024/03/17 07:29:21;;;;;;;0.50;0.50;;;;;;;10.53;80.66;97332.84;5044016;28;20052;-68
2024/03/17 07:31:47;;;;;;;0.50;0.50;;;;;;;10.98;77.75;97353.56;5061245;28;20305;-67
2024/03/17 07:34:13;;;;;;;0.50;0.50;;;;;;;11.35;76.70;97360.25;5061219;28;20060;-68
2024/03/17 07:36:39;;;;;;;0.50;0.50;;;;;;;11.64;74.41;97326.31;5078311;28;20052;-69
2024/03/17 07:39:07;;;;;;;0.50;0.50;;;;;;;12.13;73.00;97343.78;5044552;28;20439;-69
2024/03/17 07:41:32;;;;;;;0.50;0.50;;;;;;;11.42;71.55;97300.16;5060968;28;20063;-69
2024/03/17 07:43:58;;;;;;;0.50;0.50;;;;;;;11.81;71.68;97331.34;5060764;28;20048;-69
2024/03/17 07:46:24;;;;;;;0.50;0.50;;;;;;;11.54;70.35;97227.03;5044307;28;20054;-70
2024/03/17 07:48:51;;;;;;;0.60;0.60;;;;;;;12.16;70.64;97298.59;5060288;28;20533;-69
2024/03/17 07:51:17;;;;;;;0.50;0.50;;;;;;;12.84;69.20;97343.63;5060322;28;20052;-68
2024/03/17 07:53:51;;;;;;;0.50;0.50;;;;;;;13.11;67.14;97339.63;5060242;28;20059;-69
2024/03/17 07:56:19;;;;;;;0.60;0.60;;;;;;;13.17;65.94;97349.25;5060177;28;20048;-68
2024/03/17 07:58:45;;;;;;;0.60;0.60;;;;;;;13.33;65.77;97330.34;5060205;28;20053;-68
2024/03/17 08:01:13;;;;;;;0.60;0.60;;;;;;;13.49;65.29;97332.88;5043452;28;20059;-68
2024/03/17 08:03:40;;;;;;;0.60;0.60;;;;;;;13.36;64.15;97312.88;5042991;28;20562;-68
2024/03/17 08:06:08;;;;;;;0.60;0.60;;;;;;;12.07;65.11;97189.78;5060183;28;20063;-67
2024/03/17 08:08:34;;;;;;;0.60;0.60;;;;;;;13.04;66.20;97328.41;5059577;28;20608;-68
2024/03/17 08:11:03;;;;;;;0.60;0.60;;;;;;;13.43;65.07;97301.84;5069317;28;20048;-69
2024/03/17 08:13:36;;;;;;;0.60;0.60;;;;;;;14.04;63.23;97331.00;5064391;28;20056;-69
2024/03/17 08:16:08;;;;;;;0.60;0.60;;;;;;;14.10;62.15;97290.47;5066496;28;20075;-69
2024/03/17 08:18:34;;;;;;;0.60;0.60;;;;;;;14.48;61.58;97284.38;5080857;28;20055;-69
2024/03/17 08:21:03;;;;;;;0.60;0.60;;;;;;;14.93;59.44;97328.44;5080532;28;20056;-69
2024/03/17 08:23:29;;;;;;;0.70;0.70;;;;;;;15.06;58.62;97322.09;5080968;28;20461;-69
2024/03/17 08:25:56;;;;;;;0.70;0.70;;;;;;;15.00;58.38;97314.53;5080420;28;20051;-70
2024/03/17 08:28:23;;;;;;;0.60;0.60;;;;;;;14.96;58.06;97300.56;5080034;28;20052;-71
2024/03/17 08:30:53;;;;;;;0.60;0.60;;;;;;;15.18;58.17;97307.81;5080487;28;20044;-70
2024/03/17 08:33:19;;;;;;;0.60;0.60;;;;;;;15.47;58.29;97275.22;5080391;28;20079;-69
2024/03/17 08:36:05;;;;;;;0.70;0.70;;;;;;;15.81;56.49;97262.47;5080024;28;20056;-68
2024/03/17 08:38:32;;;;;;;0.70;0.70;;;;;;;16.28;56.14;97297.59;5080259;28;20056;-70
2024/03/17 08:41:08;;;;;;;0.70;0.70;;;;;;;16.46;55.46;97304.75;5079868;28;20047;-71
2024/03/17 08:43:35;;;;;;;0.70;0.70;;;;;;;14.99;57.37;97310.13;5063368;28;20490;-69
2024/03/17 08:46:04;;;;;;;0.60;0.60;;;;;;;13.68;59.60;97230.50;5080059;28;20056;-71
2024/03/17 08:48:32;;;;;;;0.60;0.60;;;;;;;13.16;60.76;97196.63;5062887;28;20518;-71
2024/03/17 08:50:59;;;;;;;0.70;0.70;;;;;;;14.84;59.42;97309.25;5067431;28;20231;-72
2024/03/17 08:53:26;;;;;;;0.60;0.60;;;;;;;15.00;57.65;97239.97;5084401;28;20056;-71
2024/03/17 08:55:53;;;;;;;0.80;0.80;;;;;;;15.62;56.16;97257.25;5084506;28;20052;-69
2024/03/17 08:58:19;;;;;;;0.70;0.70;;;;;;;16.17;54.56;97291.97;5067634;28;20509;-67
2024/03/17 09:00:45;;;;;;;0.70;0.70;;;;;;;16.35;54.05;97289.16;5084509;28;20169;-70
2024/03/17 09:03:12;;;;;;;0.70;0.70;;;;;;;16.57;54.26;97258.00;5071842;28;20060;-68
2024/03/17 09:05:43;;;;;;;0.70;0.70;;;;;;;17.23;51.80;97286.91;5043506;28;20420;-69
2024/03/17 09:08:17;;;;;;;0.70;0.70;;;;;;;17.29;51.28;97278.88;5043322;28;20444;-69
2024/03/17 09:10:44;;;;;;;0.80;0.80;;;;;;;17.10;51.24;97279.38;5026833;28;20049;-69
2024/03/17 09:13:18;;;;;;;0.70;0.70;;;;;;;17.01;51.02;97279.03;5043533;28;20076;-68
2024/03/17 09:15:54;;;;;;;0.80;0.80;;;;;;;17.28;51.22;97277.25;5043152;28;20068;-69
2024/03/17 09:18:20;;;;;;;0.70;0.70;;;;;;;16.93;50.51;97277.47;5043175;28;20522;-68
2024/03/17 09:20:54;;;;;;;0.70;0.70;;;;;;;16.47;51.60;97255.25;5043566;28;20055;-69
2024/03/17 09:23:21;;;;;;;0.70;0.70;;;;;;;15.21;54.88;97261.56;5042728;28;20553;-69
2024/03/17 09:26:04;;;;;;;0.70;0.70;;;;;;;15.63;53.70;97228.16;5026633;28;20056;-69
2024/03/17 09:28:31;;;;;;;0.60;0.60;;;;;;;15.41;55.40;97215.38;5043210;28;20412;-68
2024/03/17 09:30:58;;;;;;;0.70;0.70;;;;;;;15.48;55.71;97271.22;5042822;28;20053;-68
2024/03/17 09:33:25;;;;;;;0.70;0.70;;;;;;;14.66;58.22;97265.75;5043173;28;20060;-69
2024/03/17 09:36:07;;;;;;;0.68;0.68;;;;;;;14.89;57.54;97264.25;5042983;28;20064;-68
2024/03/17 09:38:34;;;;;;;0.70;0.70;;;;;;;15.11;56.40;97256.75;5043742;28;20057;-69
2024/03/17 09:41:00;;;;;;;0.60;0.60;;;;;;;15.49;55.04;97250.47;5043459;28;20064;-68
2024/03/17 09:43:28;;;;;;;0.65;0.65;;;;;;;16.03;54.00;97255.66;5043313;28;20111;-68
2024/03/17 09:45:57;;;;;;;0.70;0.70;;;;;;;16.66;51.89;97256.78;5042698;28;20057;-69
2024/03/17 09:48:30;;;;;;;0.77;0.77;;;;;;;16.46;51.50;97237.66;5041186;28;20094;-69
2024/03/17 09:51:03;;;;;;;0.67;0.67;;;;;;;16.80;51.22;97245.53;5061461;28;20048;-69
2024/03/17 09:53:32;;;;;;;0.70;0.70;;;;;;;16.71;50.67;97192.78;5062771;28;20669;-69
2024/03/17 09:56:16;;;;;;;0.77;0.77;;;;;;;17.32;49.34;97244.47;5062279;28;20068;-69
2024/03/17 09:58:46;;;;;;;0.70;0.70;;;;;;;17.50;49.96;97233.94;5062736;28;20073;-68
2024/03/17 10:01:12;;;;;;;0.70;0.70;;;;;;;17.89;48.65;97240.84;5060672;28;20060;-68
2024/03/17 10:03:42;;;;;;;0.70;0.70;;;;;;;17.76;48.87;97236.97;5045147;28;20052;-68
2024/03/17 10:06:12;;;;;;;0.70;0.70;;;;;;;17.64;48.51;97222.66;5045429;28;20056;-68
2024/03/17 10:08:50;;;;;;;0.70;0.70;;;;;;;17.53;48.49;97233.16;5061667;28;20447;-69
2024/03/17 10:11:19;;;;;;;0.68;0.68;;;;;;;17.29;48.46;97229.25;5054625;28;20515;-68
2024/03/17 10:13:46;;;;;;;0.70;0.70;;;;;;;17.36;48.70;97228.41;5082418;28;20102;-66
2024/03/17 10:16:27;;;;;;;0.80;0.80;;;;;;;17.52;48.46;97231.53;5049179;28;20059;-67
2024/03/17 10:19:13;;;;;;;0.70;0.70;;;;;;;17.72;47.81;97222.19;5083127;28;20510;-67
2024/03/17 10:21:41;;;;;;;0.70;0.70;;;;;;;17.35;47.05;97230.44;5065835;28;20056;-67
2024/03/17 10:24:11;;;;;;;0.70;0.70;;;;;;;17.09;48.87;97221.78;5082777;28;20513;-67
2024/03/17 10:26:53;;;;;;;0.70;0.70;;;;;;;17.47;47.06;97235.56;5065577;28;20278;-68
2024/03/17 10:29:35;;;;;;;0.70;0.70;;;;;;;16.88;48.37;97224.72;5065812;28;20052;-67
2024/03/17 10:32:12;;;;;;;0.70;0.70;;;;;;;17.26;47.35;97173.31;5082395;28;20047;-66
2024/03/17 10:34:39;;;;;;;0.73;0.73;;;;;;;17.88;45.83;97216.03;5081914;28;20052;-68
2024/03/17 10:37:15;;;;;;;0.70;0.70;;;;;;;17.91;45.22;97218.81;5065121;28;20060;-67
2024/03/17 10:39:42;;;;;;;0.70;0.70;;;;;;;17.50;44.93;97215.16;5082046;28;20055;-68
2024/03/17 10:42:10;;;;;;;0.70;0.70;;;;;;;17.81;45.20;97205.69;5064874;28;20106;-68
2024/03/17 10:44:38;;;;;;;0.80;0.80;;;;;;;18.17;45.01;97200.56;5064855;28;20059;-66
2024/03/17 10:47:09;;;;;;;0.75;0.75;;;;;;;17.69;44.64;97208.19;5065261;28;20059;-67
2024/03/17 10:49:37;;;;;;;0.80;0.80;;;;;;;16.97;45.09;97143.88;5064927;28;20056;-67
2024/03/17 10:52:06;;;;;;;0.65;0.65;;;;;;;16.41;45.27;97106.59;5065160;28;20486;-67
2024/03/17 10:54:33;;;;;;;0.70;0.70;;;;;;;17.01;44.25;97189.47;5099687;28;20052;-67
2024/03/17 10:57:28;;;;;;;0.65;0.65;;;;;;;17.54;44.05;97189.91;5082136;28;20112;-66
2024/03/17 10:59:54;;;;;;;0.70;0.70;;;;;;;18.67;43.85;97187.56;5062174;28;20055;-67
2024/03/17 11:02:25;;;;;;;0.70;0.70;;;;;;;18.91;42.17;97155.59;5081239;28;20059;-68
2024/03/17 11:04:53;;;;;;;0.80;0.80;;;;;;;18.98;42.40;97166.75;5064392;28;20052;-68
2024/03/17 11:07:20;;;;;;;0.77;0.77;;;;;;;18.85;42.21;97168.50;5080931;28;20545;-67
2024/03/17 11:09:47;;;;;;;0.68;0.68;;;;;;;18.92;42.59;97176.81;5080999;28;20166;-68
2024/03/17 11:12:45;;;;;;;0.85;0.85;;;;;;;18.85;41.82;97168.50;5064035;28;20052;-66
2024/03/17 11:15:23;;;;;;;0.70;0.70;;;;;;;19.12;42.40;97160.91;5044101;28;20483;-66
2024/03/17 11:17:51;;;;;;;0.70;0.70;;;;;;;18.92;41.72;97162.00;5060830;28;20056;-67
2024/03/17 11:20:25;;;;;;;0.80;0.80;;;;;;;19.40;42.41;97159.72;5060493;28;20052;-68
2024/03/17 11:22:53;;;;;;;0.80;0.80;;;;;;;19.76;40.90;97148.69;5060626;28;20048;-68
2024/03/17 11:25:25;;;;;;;0.80;0.80;;;;;;;19.91;41.17;97153.63;5060694;28;20380;-67
2024/03/17 11:27:54;;;;;;;0.80;0.80;;;;;;;19.65;40.48;97103.09;5060790;28;20526;-66
2024/03/17 11:30:54;;;;;;;0.73;0.73;;;;;;;20.19;39.10;97138.25;5060788;28;20534;-68
2024/03/17 11:33:35;;;;;;;0.80;0.80;;;;;;;19.98;39.29;97139.44;5061260;28;20061;-66
2024/03/17 11:36:22;;;;;;;0.80;0.80;;;;;;;20.14;39.25;97131.13;5060129;28;20053;-67
2024/03/17 11:39:06;;;;;;;0.73;0.73;;;;;;;20.11;38.86;97139.59;5044567;28;20052;-68
2024/03/17 11:41:34;;;;;;;0.73;0.73;;;;;;;19.97;38.36;97131.41;5060918;28;20109;-67
2024/03/17 11:44:18;;;;;;;0.80;0.80;;;;;;;20.04;38.61;97136.94;5060624;28;20155;-66